createdAt,value
2022-09-23T00:01:26.639Z,76.44
2022-09-23T00:03:55.037Z,76.86
2022-09-23T00:06:24.133Z,76.97
2022-09-23T00:08:52.521Z,77.07
2022-09-23T00:11:28.571Z,77.18
2022-09-23T00:13:58.792Z,77.00
2022-09-23T00:16:30.798Z,76.43
2022-09-23T00:18:58.921Z,77.02
2022-09-23T00:21:27.463Z,76.94
2022-09-23T00:23:55.544Z,77.18
2022-09-23T00:26:23.850Z,77.40
2022-09-23T00:28:52.021Z,77.62
2022-09-23T00:31:23.753Z,77.46
2022-09-23T00:34:01.908Z,77.65
2022-09-23T00:36:32.490Z,77.56
2022-09-23T00:39:00.380Z,77.90
2022-09-23T00:41:28.248Z,77.70
2022-09-23T00:43:59.796Z,77.81
2022-09-23T00:46:37.298Z,77.64
2022-09-23T00:49:21.946Z,77.53
2022-09-23T00:51:55.962Z,77.64
2022-09-23T00:54:27.518Z,77.78
2022-09-23T00:56:57.799Z,77.47
2022-09-23T00:59:26.469Z,77.60
2022-09-23T01:01:58.030Z,77.83
2022-09-23T01:04:28.494Z,77.47
2022-09-23T01:07:11.644Z,77.70
2022-09-23T01:09:39.757Z,78.04
2022-09-23T01:12:23.321Z,77.86
2022-09-23T01:15:05.525Z,78.17
2022-09-23T01:17:40.458Z,78.03
2022-09-23T01:20:30.130Z,77.93
2022-09-23T01:23:19.910Z,77.96
2022-09-23T01:26:12.147Z,78.22
2022-09-23T01:28:58.444Z,77.80
2022-09-23T01:31:43.105Z,77.86
2022-09-23T01:34:22.491Z,78.11
2022-09-23T01:37:14.267Z,78.31
2022-09-23T01:39:58.310Z,78.35
2022-09-23T01:42:39.636Z,78.32
2022-09-23T01:45:16.335Z,78.18
2022-09-23T01:48:13.959Z,78.26
2022-09-23T01:50:59.100Z,78.39
2022-09-23T01:53:45.502Z,78.38
2022-09-23T01:56:20.733Z,78.43
2022-09-23T01:59:01.709Z,78.52
2022-09-23T02:01:56.128Z,78.49
2022-09-23T02:04:54.478Z,78.70
2022-09-23T02:07:32.379Z,78.61
2022-09-23T02:10:25.295Z,78.70
2022-09-23T02:13:00.102Z,78.62
2022-09-23T02:15:37.041Z,78.91
2022-09-23T02:18:20.071Z,78.75
2022-09-23T02:20:50.747Z,78.97
2022-09-23T02:23:27.773Z,78.42
2022-09-23T02:26:12.076Z,78.87
2022-09-23T02:28:52.558Z,79.11
2022-09-23T02:31:47.888Z,78.85
2022-09-23T02:35:00.406Z,78.85
2022-09-23T02:37:48.342Z,79.34
2022-09-23T02:40:23.789Z,78.89
2022-09-23T02:43:06.290Z,78.94
2022-09-23T02:45:34.534Z,79.28
2022-09-23T02:48:18.506Z,79.18
2022-09-23T02:50:47.917Z,78.85
2022-09-23T02:53:16.318Z,79.39
2022-09-23T02:55:44.645Z,79.16
2022-09-23T02:58:14.188Z,79.15
2022-09-23T03:00:44.732Z,78.88
2022-09-23T03:03:33.964Z,79.23
2022-09-23T03:06:28.964Z,79.42
2022-09-23T03:09:21.924Z,79.43
2022-09-23T03:12:03.203Z,79.36
2022-09-23T03:14:54.037Z,79.32
2022-09-23T03:17:53.260Z,79.85
2022-09-23T03:20:27.213Z,79.89
2022-09-23T03:23:02.964Z,79.60
2022-09-23T03:25:34.621Z,79.38
2022-09-23T03:28:04.842Z,79.22
2022-09-23T03:30:38.132Z,79.89
2022-09-23T03:33:09.785Z,79.73
2022-09-23T03:36:03.044Z,79.75
2022-09-23T03:38:36.687Z,79.55
2022-09-23T03:41:08.682Z,79.85
2022-09-23T03:43:38.964Z,79.73
2022-09-23T03:46:08.372Z,80.00
2022-09-23T03:48:36.198Z,80.08
2022-09-23T03:51:20.362Z,79.86
2022-09-23T03:53:48.484Z,80.01
2022-09-23T03:56:16.904Z,79.65
2022-09-23T03:58:47.033Z,79.55
2022-09-23T04:01:15.126Z,79.83
2022-09-23T04:03:43.662Z,80.12
2022-09-23T04:06:11.402Z,79.68
2022-09-23T04:08:39.190Z,79.70
2022-09-23T04:11:07.260Z,79.96
2022-09-23T04:13:35.125Z,79.90
2022-09-23T04:16:02.957Z,79.94
2022-09-23T04:18:31.573Z,79.90
2022-09-23T04:21:00.108Z,79.79
2022-09-23T04:23:28.328Z,79.87
2022-09-23T04:25:56.325Z,80.01
2022-09-23T04:28:24.165Z,80.23
2022-09-23T04:30:52.028Z,80.07
2022-09-23T04:33:19.792Z,79.74
2022-09-23T04:35:52.677Z,80.15
2022-09-23T04:38:20.545Z,80.10
2022-09-23T04:40:49.072Z,80.03
2022-09-23T04:43:17.336Z,80.52
2022-09-23T04:45:45.392Z,79.87
2022-09-23T04:48:14.052Z,79.76
2022-09-23T04:50:42.328Z,79.95
2022-09-23T04:53:10.499Z,80.17
2022-09-23T04:55:38.264Z,79.99
2022-09-23T04:58:06.027Z,80.15
2022-09-23T05:00:33.937Z,79.80
2022-09-23T05:03:01.960Z,80.32
2022-09-23T05:05:31.036Z,80.07
2022-09-23T05:07:58.817Z,80.27
2022-09-23T05:10:26.576Z,80.16
2022-09-23T05:12:57.273Z,80.24
2022-09-23T05:15:25.285Z,80.78
2022-09-23T05:17:53.275Z,80.53
2022-09-23T05:20:21.119Z,80.75
2022-09-23T05:22:48.906Z,81.17
2022-09-23T05:25:16.950Z,80.83
2022-09-23T05:27:44.721Z,80.61
2022-09-23T05:30:12.743Z,80.80
2022-09-23T05:32:40.546Z,80.68
2022-09-23T05:35:08.820Z,80.74
2022-09-23T05:37:37.336Z,80.49
2022-09-23T05:40:06.032Z,80.52
2022-09-23T05:42:33.841Z,80.73
2022-09-23T05:45:01.820Z,80.93
2022-09-23T05:47:29.585Z,80.90
2022-09-23T05:50:00.287Z,81.13
2022-09-23T05:52:28.591Z,80.73
2022-09-23T05:54:56.358Z,80.74
2022-09-23T05:57:24.835Z,81.29
2022-09-23T05:59:52.801Z,81.37
2022-09-23T06:02:20.632Z,81.28
2022-09-23T06:04:48.535Z,81.30
2022-09-23T06:07:16.298Z,81.01
2022-09-23T06:09:44.264Z,81.20
2022-09-23T06:12:14.286Z,81.36
2022-09-23T06:14:42.245Z,81.09
2022-09-23T06:17:10.113Z,81.65
2022-09-23T06:19:37.977Z,81.65
2022-09-23T06:22:05.742Z,81.62
2022-09-23T06:24:33.505Z,81.49
2022-09-23T06:27:01.528Z,81.48
2022-09-23T06:29:31.078Z,81.58
2022-09-23T06:31:59.878Z,81.78
2022-09-23T06:34:27.868Z,81.79
2022-09-23T06:36:55.808Z,82.05
2022-09-23T06:39:23.771Z,82.21
2022-09-23T06:41:51.635Z,81.96
2022-09-23T06:44:19.603Z,82.24
2022-09-23T06:46:47.921Z,82.27
2022-09-23T06:49:15.700Z,82.13
2022-09-23T06:51:43.486Z,82.34
2022-09-23T06:54:11.387Z,82.28
2022-09-23T06:56:40.167Z,82.33
2022-09-23T06:59:11.070Z,82.35
2022-09-23T07:01:39.323Z,82.28
2022-09-23T07:04:08.029Z,82.33
2022-09-23T07:06:36.335Z,82.44
2022-09-23T07:09:06.386Z,82.45
2022-09-23T07:11:34.271Z,82.70
2022-09-23T07:14:02.526Z,82.45
2022-09-23T07:16:30.344Z,82.88
2022-09-23T07:18:58.395Z,82.71
2022-09-23T07:21:27.004Z,83.01
2022-09-23T07:23:55.336Z,83.09
2022-09-23T07:26:23.080Z,83.08
2022-09-23T07:28:55.494Z,82.91
2022-09-23T07:31:35.869Z,83.26
2022-09-23T07:34:07.064Z,83.06
2022-09-23T07:36:37.579Z,83.09
2022-09-23T07:39:05.569Z,83.34
2022-09-23T07:41:34.209Z,83.46
2022-09-23T07:44:03.130Z,83.38
2022-09-23T07:46:34.127Z,83.02
2022-09-23T07:49:03.381Z,82.91
2022-09-23T07:51:36.470Z,83.11
2022-09-23T07:54:10.133Z,83.20
2022-09-23T07:56:39.108Z,83.41
2022-09-23T07:59:09.345Z,83.27
2022-09-23T08:01:40.536Z,82.99
2022-09-23T08:04:14.793Z,83.51
2022-09-23T08:06:57.757Z,83.38
2022-09-23T08:09:28.544Z,83.53
2022-09-23T08:11:56.279Z,83.39
2022-09-23T08:14:24.146Z,83.56
2022-09-23T08:16:52.442Z,82.99
2022-09-23T08:19:20.418Z,83.52
2022-09-23T08:21:52.230Z,83.65
2022-09-23T08:24:23.788Z,83.65
2022-09-23T08:26:53.481Z,83.43
2022-09-23T08:29:23.243Z,83.46
2022-09-23T08:31:52.025Z,83.31
2022-09-23T08:34:21.560Z,83.16
2022-09-23T08:36:50.185Z,83.50
2022-09-23T08:39:20.396Z,83.59
2022-09-23T08:41:59.052Z,83.12
2022-09-23T08:44:48.083Z,83.08
2022-09-23T08:47:24.833Z,83.37
2022-09-23T08:49:59.441Z,83.14
2022-09-23T08:52:31.384Z,83.19
2022-09-23T08:54:59.561Z,83.14
2022-09-23T08:57:43.604Z,83.24
2022-09-23T09:00:20.527Z,82.82
2022-09-23T09:02:49.394Z,82.85
2022-09-23T09:05:25.481Z,82.87
2022-09-23T09:07:57.697Z,82.48
2022-09-23T09:10:41.944Z,82.52
2022-09-23T09:13:43.377Z,82.35
2022-09-23T09:16:59.012Z,82.35
2022-09-23T09:19:48.045Z,82.55
2022-09-23T09:25:25.566Z,82.13
2022-09-23T09:27:54.872Z,81.93
2022-09-23T09:30:25.012Z,81.54
2022-09-23T09:33:02.513Z,81.47
2022-09-23T09:35:57.606Z,81.51
2022-09-23T09:38:27.198Z,81.46
2022-09-23T09:40:56.062Z,81.13
2022-09-23T09:43:23.936Z,80.95
2022-09-23T09:46:14.353Z,80.60
2022-09-23T09:49:15.002Z,80.17
2022-09-23T09:51:42.928Z,79.48
2022-09-23T09:54:27.024Z,79.58
2022-09-23T09:56:55.169Z,78.99
2022-09-23T09:59:28.892Z,79.33
2022-09-23T10:02:21.646Z,78.65
2022-09-23T10:05:02.315Z,76.25
2022-09-23T10:07:32.322Z,76.80
2022-09-23T10:10:32.447Z,76.38
2022-09-23T10:13:15.996Z,74.83
2022-09-23T10:15:45.560Z,75.07
2022-09-23T10:18:20.595Z,74.96
2022-09-23T10:20:48.994Z,75.19
2022-09-23T10:23:22.936Z,74.35
2022-09-23T10:26:10.423Z,73.34
2022-09-23T10:28:51.961Z,73.23
2022-09-23T10:31:25.548Z,73.66
2022-09-23T10:33:57.382Z,73.20
2022-09-23T10:36:26.838Z,72.57
2022-09-23T10:39:20.752Z,72.93
2022-09-23T10:42:16.472Z,72.58
2022-09-23T10:45:02.501Z,71.47
2022-09-23T10:47:47.128Z,70.65
2022-09-23T10:50:33.322Z,71.61
2022-09-23T10:53:08.168Z,69.97
2022-09-23T10:55:54.857Z,68.13
2022-09-23T10:59:03.477Z,68.61
2022-09-23T11:02:00.326Z,68.36
2022-09-23T11:04:51.721Z,66.67
2022-09-23T11:07:37.102Z,66.42
2022-09-23T11:10:05.193Z,66.11
2022-09-23T11:12:44.442Z,66.61
2022-09-23T11:15:21.055Z,66.75
2022-09-23T11:18:16.860Z,65.47
2022-09-23T11:21:23.288Z,66.13
2022-09-23T11:24:28.224Z,66.03
2022-09-23T11:27:08.172Z,65.95
2022-09-23T11:29:59.594Z,65.41
2022-09-23T11:35:45.927Z,62.05
2022-09-23T11:38:28.151Z,61.98
2022-09-23T11:41:02.580Z,61.16
2022-09-23T11:43:37.360Z,61.60
2022-09-23T11:46:17.051Z,60.92
2022-09-23T11:48:47.489Z,61.86
2022-09-23T11:51:48.699Z,61.56
2022-09-23T11:54:22.148Z,59.85
2022-09-23T11:56:58.891Z,60.42
2022-09-23T11:59:46.383Z,60.81
2022-09-23T12:02:30.587Z,60.50
2022-09-23T12:05:08.958Z,60.22
2022-09-23T12:07:45.202Z,59.41
2022-09-23T12:10:14.687Z,58.41
2022-09-23T12:12:53.132Z,58.52
2022-09-23T12:15:34.711Z,57.30
2022-09-23T12:18:34.733Z,58.30
2022-09-23T12:21:38.849Z,57.97
2022-09-23T12:24:31.697Z,58.09
2022-09-23T12:27:06.318Z,56.56
2022-09-23T12:29:36.945Z,55.80
2022-09-23T12:32:10.673Z,54.97
2022-09-23T12:34:49.244Z,55.12
2022-09-23T12:37:43.966Z,55.09
2022-09-23T12:40:34.802Z,54.19
2022-09-23T12:43:03.049Z,52.76
2022-09-23T12:45:32.875Z,53.53
2022-09-23T12:48:04.726Z,53.33
2022-09-23T12:51:00.684Z,54.07
2022-09-23T12:53:34.852Z,53.90
2022-09-23T12:56:19.406Z,53.52
2022-09-23T12:58:47.173Z,51.82
2022-09-23T13:01:15.462Z,51.82
2022-09-23T13:04:09.906Z,52.74
2022-09-23T13:06:49.891Z,52.08
2022-09-23T13:09:25.095Z,52.48
2022-09-23T13:11:53.652Z,52.42
2022-09-23T13:14:27.511Z,52.57
2022-09-23T13:16:58.582Z,52.97
2022-09-23T13:19:26.458Z,52.23
2022-09-23T13:21:54.171Z,51.82
2022-09-23T13:24:31.343Z,52.15
2022-09-23T13:27:01.835Z,51.56
2022-09-23T13:29:37.427Z,51.89
2022-09-23T13:32:06.501Z,51.92
2022-09-23T13:34:38.803Z,52.18
2022-09-23T13:37:32.533Z,52.19
2022-09-23T13:40:17.618Z,52.27
2022-09-23T13:42:51.104Z,51.85
2022-09-23T13:45:21.311Z,52.16
2022-09-23T13:47:51.516Z,52.24
2022-09-23T13:50:23.877Z,52.13
2022-09-23T13:52:56.601Z,52.12
2022-09-23T13:55:27.117Z,52.39
2022-09-23T13:58:13.741Z,52.33
2022-09-23T14:00:41.532Z,52.29
2022-09-23T14:03:25.955Z,52.23
2022-09-23T14:05:56.528Z,51.68
2022-09-23T14:08:25.255Z,51.74
2022-09-23T14:10:53.693Z,51.95
2022-09-23T14:13:26.545Z,52.13
2022-09-23T14:15:59.737Z,51.61
2022-09-23T14:18:44.313Z,51.50
2022-09-23T14:21:50.791Z,51.76
2022-09-23T14:24:35.777Z,51.48
2022-09-23T14:27:06.428Z,51.61
2022-09-23T14:29:39.894Z,51.24
2022-09-23T14:32:11.909Z,51.32
2022-09-23T14:34:41.653Z,51.02
2022-09-23T14:37:37.272Z,50.98
2022-09-23T14:40:12.474Z,51.32
2022-09-23T14:42:43.826Z,51.62
2022-09-23T14:45:19.660Z,51.54
2022-09-23T14:47:51.626Z,51.03
2022-09-23T14:50:47.690Z,51.26
2022-09-23T14:53:24.245Z,50.87
2022-09-23T14:56:07.309Z,50.34
2022-09-23T14:58:54.031Z,50.58
2022-09-23T15:01:31.260Z,50.72
2022-09-23T15:04:17.748Z,50.68
2022-09-23T15:07:02.734Z,50.42
2022-09-23T15:09:40.074Z,50.36
2022-09-23T15:12:16.590Z,50.69
2022-09-23T15:14:49.587Z,50.80
2022-09-23T15:17:25.842Z,51.03
2022-09-23T15:19:57.211Z,51.01
2022-09-23T15:22:25.856Z,51.06
2022-09-23T15:24:56.107Z,51.05
2022-09-23T15:27:34.317Z,51.07
2022-09-23T15:30:15.591Z,51.23
2022-09-23T15:32:45.002Z,51.30
2022-09-23T15:35:21.674Z,51.40
2022-09-23T15:37:50.456Z,51.60
2022-09-23T15:40:21.060Z,51.68
2022-09-23T15:42:52.592Z,51.50
2022-09-23T15:45:26.377Z,51.63
2022-09-23T15:47:55.953Z,51.75
2022-09-23T15:50:23.819Z,51.85
2022-09-23T15:52:51.621Z,52.02
2022-09-23T15:55:23.761Z,51.88
2022-09-23T15:57:51.529Z,52.22
2022-09-23T16:00:19.785Z,52.51
2022-09-23T16:02:49.655Z,53.01
2022-09-23T16:05:49.929Z,53.33
2022-09-23T16:08:23.485Z,53.91
2022-09-23T16:10:51.715Z,54.23
2022-09-23T16:13:19.603Z,54.36
2022-09-23T16:15:47.426Z,54.75
2022-09-23T16:18:15.294Z,54.98
2022-09-23T16:20:45.884Z,54.82
2022-09-23T16:23:38.837Z,55.23
2022-09-23T16:26:15.887Z,55.90
2022-09-23T16:28:44.958Z,56.18
2022-09-23T16:31:17.294Z,56.40
2022-09-23T16:33:47.075Z,56.80
2022-09-23T16:36:25.985Z,56.53
2022-09-23T16:38:57.608Z,56.96
2022-09-23T16:41:29.479Z,57.33
2022-09-23T16:44:00.616Z,57.44
2022-09-23T16:46:29.997Z,57.41
2022-09-23T16:48:59.533Z,57.97
2022-09-23T16:51:30.513Z,58.15
2022-09-23T16:53:59.696Z,57.84
2022-09-23T16:56:29.438Z,58.20
2022-09-23T16:58:57.344Z,58.50
2022-09-23T17:01:46.307Z,58.68
2022-09-23T17:04:17.025Z,59.70
2022-09-23T17:06:50.310Z,60.02
2022-09-23T17:09:20.228Z,59.76
2022-09-23T17:11:58.849Z,59.92
2022-09-23T17:14:29.966Z,60.49
2022-09-23T17:16:58.995Z,60.42
2022-09-23T17:19:26.947Z,60.82
2022-09-23T17:21:54.812Z,60.87
2022-09-23T17:24:22.782Z,61.30
2022-09-23T17:26:53.303Z,61.64
2022-09-23T17:29:21.689Z,61.72
2022-09-23T17:31:49.901Z,61.76
2022-09-23T17:34:19.473Z,61.93
2022-09-23T17:36:47.190Z,61.67
2022-09-23T17:39:14.994Z,61.91
2022-09-23T17:41:43.471Z,62.19
2022-09-23T17:44:11.786Z,62.12
2022-09-23T17:46:39.622Z,62.27
2022-09-23T17:49:08.625Z,61.48
2022-09-23T17:51:37.396Z,62.25
2022-09-23T17:54:05.286Z,62.84
2022-09-23T17:56:34.161Z,63.53
2022-09-23T17:59:03.717Z,63.30
2022-09-23T18:01:32.024Z,63.82
2022-09-23T18:04:02.046Z,64.41
2022-09-23T18:06:32.474Z,64.61
2022-09-23T18:09:03.752Z,64.65
2022-09-23T18:11:35.582Z,64.42
2022-09-23T18:14:07.935Z,64.58
2022-09-23T18:16:37.793Z,64.44
2022-09-23T18:19:07.276Z,64.78
2022-09-23T18:21:37.932Z,65.30
2022-09-23T18:24:30.863Z,65.02
2022-09-23T18:26:56.281Z,65.45
2022-09-23T18:29:24.051Z,65.51
2022-09-23T18:31:51.900Z,65.42
2022-09-23T18:34:20.463Z,65.28
2022-09-23T18:36:48.340Z,65.47
2022-09-23T18:39:16.106Z,65.86
2022-09-23T18:41:43.923Z,65.89
2022-09-23T18:44:11.801Z,66.01
2022-09-23T18:46:39.791Z,66.43
2022-09-23T18:49:27.158Z,65.89
2022-09-23T18:51:57.216Z,66.70
2022-09-23T18:54:28.230Z,66.42
2022-09-23T18:56:56.759Z,65.60
2022-09-23T18:59:28.097Z,66.17
2022-09-23T19:01:57.651Z,66.72
2022-09-23T19:04:27.383Z,66.72
2022-09-23T19:06:56.847Z,67.49
2022-09-23T19:09:25.556Z,67.38
2022-09-23T19:11:53.925Z,67.09
2022-09-23T19:14:21.799Z,67.58
2022-09-23T19:16:50.790Z,67.21
2022-09-23T19:19:18.615Z,67.12
2022-09-23T19:21:46.467Z,66.80
2022-09-23T19:24:19.964Z,66.81
2022-09-23T19:26:48.781Z,66.60
2022-09-23T19:29:22.194Z,67.33
2022-09-23T19:31:50.219Z,67.16
2022-09-23T19:34:23.763Z,66.97
2022-09-23T19:36:52.888Z,68.05
2022-09-23T19:39:23.102Z,66.90
2022-09-23T19:41:52.547Z,67.58
2022-09-23T19:44:20.509Z,67.23
2022-09-23T19:46:55.112Z,67.18
2022-09-23T19:49:24.888Z,67.26
2022-09-23T19:51:55.831Z,67.60
2022-09-23T19:54:26.715Z,67.44
2022-09-23T19:56:54.720Z,67.90
2022-09-23T19:59:22.550Z,67.51
2022-09-23T20:01:50.401Z,67.68
2022-09-23T20:04:18.286Z,67.95
2022-09-23T20:06:46.426Z,68.33
2022-09-23T20:09:14.588Z,67.72
2022-09-23T20:11:44.307Z,67.90
2022-09-23T20:14:12.999Z,68.22
2022-09-23T20:16:40.847Z,68.42
2022-09-23T20:19:10.157Z,68.38
2022-09-23T20:21:37.993Z,68.73
2022-09-23T20:24:07.056Z,68.86
2022-09-23T20:26:53.433Z,68.19
2022-09-23T20:29:21.963Z,69.19
2022-09-23T20:31:49.768Z,68.85
2022-09-23T20:34:18.864Z,69.63
2022-09-23T20:36:46.638Z,68.95
2022-09-23T20:39:14.457Z,69.46
2022-09-23T20:41:42.300Z,69.40
2022-09-23T20:44:12.718Z,69.51
2022-09-23T20:46:47.910Z,69.54
2022-09-23T20:49:17.748Z,68.99
2022-09-23T20:51:48.248Z,69.47
2022-09-23T20:54:19.381Z,69.73
2022-09-23T20:56:48.851Z,70.27
2022-09-23T20:59:18.325Z,70.30
2022-09-23T21:01:47.499Z,70.36
2022-09-23T21:04:15.630Z,70.29
2022-09-23T21:06:43.676Z,70.33
2022-09-23T21:09:11.480Z,70.41
2022-09-23T21:11:39.276Z,70.06
2022-09-23T21:14:07.183Z,70.31
2022-09-23T21:16:35.284Z,70.35
2022-09-23T21:19:03.935Z,70.50
2022-09-23T21:21:31.767Z,70.48
2022-09-23T21:24:17.471Z,70.41
2022-09-23T21:26:47.901Z,70.78
2022-09-23T21:29:16.538Z,71.31
2022-09-23T21:31:44.402Z,70.49
2022-09-23T21:34:12.736Z,70.91
2022-09-23T21:36:43.274Z,71.20
2022-09-23T21:39:12.456Z,71.57
2022-09-23T21:41:40.574Z,71.30
2022-09-23T21:44:08.674Z,71.85
2022-09-23T21:46:37.147Z,71.81
2022-09-23T21:49:05.093Z,71.59
2022-09-23T21:51:37.688Z,71.42
2022-09-23T21:54:06.498Z,72.01
2022-09-23T21:56:36.674Z,71.43
2022-09-23T21:59:07.712Z,71.82
2022-09-23T22:01:38.427Z,71.87
2022-09-23T22:04:13.313Z,71.70
2022-09-23T22:06:41.361Z,72.31
2022-09-23T22:09:13.541Z,72.31
2022-09-23T22:12:00.707Z,72.22
2022-09-23T22:14:30.567Z,72.39
2022-09-23T22:17:01.557Z,72.02
2022-09-23T22:19:44.343Z,72.73
2022-09-23T22:22:16.683Z,72.66
2022-09-23T22:24:46.672Z,72.41
2022-09-23T22:27:16.987Z,72.23
2022-09-23T22:30:03.817Z,72.21
2022-09-23T22:32:34.706Z,72.98
2022-09-23T22:35:02.738Z,72.76
2022-09-23T22:37:34.351Z,72.77
2022-09-23T22:40:05.459Z,72.83
2022-09-23T22:42:33.307Z,72.93
2022-09-23T22:45:01.046Z,73.29
2022-09-23T22:47:28.820Z,72.99
2022-09-23T22:49:56.584Z,72.52
2022-09-23T22:52:24.566Z,72.69
2022-09-23T22:54:53.018Z,72.81
2022-09-23T22:57:20.793Z,72.96
2022-09-23T22:59:48.576Z,73.11
2022-09-23T23:02:21.952Z,73.27
2022-09-23T23:04:50.651Z,73.37
2022-09-23T23:07:21.301Z,73.05
2022-09-23T23:09:50.557Z,73.43
2022-09-23T23:12:20.439Z,73.50
2022-09-23T23:14:49.503Z,73.89
2022-09-23T23:17:18.845Z,73.73
2022-09-23T23:19:47.603Z,73.27
2022-09-23T23:22:15.651Z,73.98
2022-09-23T23:24:43.449Z,74.04
2022-09-23T23:27:11.178Z,73.88
2022-09-23T23:29:38.908Z,74.33
2022-09-23T23:32:07.756Z,73.98
2022-09-23T23:34:35.482Z,73.56
2022-09-23T23:37:03.334Z,74.46
2022-09-23T23:39:31.091Z,74.53
2022-09-23T23:41:58.813Z,73.98
2022-09-23T23:44:27.433Z,73.92
2022-09-23T23:46:55.369Z,74.30
2022-09-23T23:49:23.575Z,74.31
2022-09-23T23:51:51.510Z,74.37
2022-09-23T23:54:19.247Z,73.91
2022-09-23T23:56:47.173Z,73.91
2022-09-23T23:59:15.456Z,74.46
